createdAt,value
2019-05-26T00:01:29.204Z,11.10
2019-05-26T00:03:58.168Z,11.10
2019-05-26T00:06:27.077Z,11.10
2019-05-26T00:08:55.966Z,11.10
2019-05-26T00:11:25.132Z,11.10
2019-05-26T00:13:54.182Z,11.20
2019-05-26T00:16:23.139Z,11.20
2019-05-26T00:18:51.980Z,11.20
2019-05-26T00:21:21.045Z,11.20
2019-05-26T00:23:50.222Z,11.20
2019-05-26T00:26:19.118Z,11.20
2019-05-26T00:28:48.011Z,11.20
2019-05-26T00:31:16.853Z,11.20
2019-05-26T00:33:45.921Z,11.20
2019-05-26T00:36:15.036Z,11.10
2019-05-26T00:38:44.180Z,11.20
2019-05-26T00:41:13.057Z,11.20
2019-05-26T00:43:41.961Z,11.20
2019-05-26T00:46:11.112Z,11.20
2019-05-26T00:48:40.085Z,11.20
2019-05-26T00:51:08.961Z,11.20
2019-05-26T00:53:37.872Z,11.20
2019-05-26T00:56:07.149Z,11.20
2019-05-26T00:58:35.988Z,11.20
2019-05-26T01:01:05.009Z,11.10
2019-05-26T01:03:33.909Z,11.10
2019-05-26T01:06:02.900Z,11.10
2019-05-26T01:08:32.320Z,11.10
2019-05-26T01:11:01.654Z,11.00
2019-05-26T01:13:30.698Z,11.00
2019-05-26T01:15:59.781Z,11.00
2019-05-26T01:18:28.689Z,10.90
2019-05-26T01:20:57.584Z,10.90
2019-05-26T01:23:26.580Z,10.80
2019-05-26T01:25:55.439Z,10.80
2019-05-26T01:28:24.289Z,10.80
2019-05-26T01:30:53.174Z,10.70
2019-05-26T01:33:22.154Z,10.70
2019-05-26T01:35:51.255Z,10.70
2019-05-26T01:38:24.323Z,10.70
2019-05-26T01:40:52.213Z,10.70
2019-05-26T01:43:21.393Z,10.60
2019-05-26T01:45:50.224Z,10.60
2019-05-26T01:48:19.100Z,10.50
2019-05-26T01:50:48.269Z,10.40
2019-05-26T01:53:17.354Z,10.40
2019-05-26T01:55:46.320Z,10.30
2019-05-26T01:58:15.221Z,10.30
2019-05-26T02:00:44.056Z,10.30
2019-05-26T02:03:13.592Z,10.20
2019-05-26T02:05:42.491Z,10.20
2019-05-26T02:08:12.169Z,10.20
2019-05-26T02:10:41.593Z,10.20
2019-05-26T02:13:10.488Z,10.20
2019-05-26T02:15:39.312Z,10.20
2019-05-26T02:18:08.294Z,10.20
2019-05-26T02:20:37.402Z,10.30
2019-05-26T02:23:06.368Z,10.30
2019-05-26T02:25:35.586Z,10.20
2019-05-26T02:28:04.709Z,10.20
2019-05-26T02:30:33.975Z,10.20
2019-05-26T02:33:03.142Z,10.20
2019-05-26T02:35:32.073Z,10.20
2019-05-26T02:38:00.898Z,10.10
2019-05-26T02:40:29.832Z,10.20
2019-05-26T02:42:58.900Z,10.10
2019-05-26T02:45:27.866Z,10.20
2019-05-26T02:47:57.013Z,10.20
2019-05-26T02:50:26.814Z,10.20
2019-05-26T02:52:55.784Z,10.20
2019-05-26T02:55:25.074Z,10.20
2019-05-26T02:57:53.934Z,10.30
2019-05-26T03:00:41.717Z,10.20
2019-05-26T03:03:11.775Z,10.20
2019-05-26T03:05:42.934Z,10.20
2019-05-26T03:08:12.166Z,10.20
2019-05-26T03:10:41.244Z,10.20
2019-05-26T03:13:13.568Z,10.20
2019-05-26T03:15:44.367Z,10.10
2019-05-26T03:18:13.748Z,10.10
2019-05-26T03:20:43.551Z,10.10
2019-05-26T03:23:12.798Z,10.10
2019-05-26T03:25:41.733Z,10.00
2019-05-26T03:28:10.637Z,10.00
2019-05-26T03:30:40.127Z,10.00
2019-05-26T03:33:09.332Z,10.00
2019-05-26T03:35:38.277Z,10.10
2019-05-26T03:38:07.228Z,10.10
2019-05-26T03:40:36.481Z,10.10
2019-05-26T03:43:05.457Z,10.10
2019-05-26T03:46:17.271Z,10.10
2019-05-26T03:48:46.469Z,10.00
2019-05-26T03:51:15.479Z,10.00
2019-05-26T03:53:44.592Z,10.00
2019-05-26T03:56:13.634Z,10.00
2019-05-26T03:58:42.516Z,10.00
2019-05-26T04:01:11.477Z,10.00
2019-05-26T04:03:40.434Z,10.00
2019-05-26T04:06:09.886Z,10.00
2019-05-26T04:08:38.824Z,10.00
2019-05-26T04:11:08.498Z,10.00
2019-05-26T04:13:37.380Z,10.00
2019-05-26T04:16:06.331Z,10.10
2019-05-26T04:18:35.206Z,10.10
2019-05-26T04:21:04.678Z,10.10
2019-05-26T04:23:33.569Z,10.10
2019-05-26T04:26:02.486Z,10.10
2019-05-26T04:28:31.372Z,10.20
2019-05-26T04:31:00.423Z,10.20
2019-05-26T04:33:29.349Z,10.20
2019-05-26T04:35:58.160Z,10.20
2019-05-26T04:38:27.993Z,10.20
2019-05-26T04:40:56.873Z,10.20
2019-05-26T04:43:25.711Z,10.20
2019-05-26T04:45:54.684Z,10.20
2019-05-26T04:48:23.498Z,10.20
2019-05-26T04:50:53.245Z,10.30
2019-05-26T04:53:22.377Z,10.40
2019-05-26T04:55:51.375Z,10.50
2019-05-26T04:58:20.645Z,10.60
2019-05-26T05:00:49.435Z,10.60
2019-05-26T05:03:18.570Z,10.70
2019-05-26T05:05:47.379Z,10.80
2019-05-26T05:08:16.277Z,10.90
2019-05-26T05:10:45.360Z,11.00
2019-05-26T05:13:14.248Z,11.10
2019-05-26T05:15:43.103Z,11.10
2019-05-26T05:18:11.949Z,11.20
2019-05-26T05:20:41.357Z,11.20
2019-05-26T05:23:10.252Z,11.30
2019-05-26T05:25:39.298Z,11.40
2019-05-26T05:28:08.246Z,11.50
2019-05-26T05:30:37.124Z,11.60
2019-05-26T05:33:06.128Z,11.70
2019-05-26T05:35:34.964Z,11.70
2019-05-26T05:38:03.880Z,11.90
2019-05-26T05:40:32.817Z,12.00
2019-05-26T05:43:01.627Z,12.10
2019-05-26T05:45:30.579Z,12.20
2019-05-26T05:47:59.434Z,12.20
2019-05-26T05:50:28.509Z,12.30
2019-05-26T05:52:57.344Z,12.30
2019-05-26T05:55:26.321Z,12.40
2019-05-26T05:57:55.288Z,12.40
2019-05-26T06:00:24.289Z,12.50
2019-05-26T06:02:53.184Z,12.70
2019-05-26T06:05:22.144Z,12.70
2019-05-26T06:07:50.954Z,12.80
2019-05-26T06:10:20.033Z,12.90
2019-05-26T06:12:48.953Z,12.90
2019-05-26T06:15:17.973Z,13.00
2019-05-26T06:17:46.781Z,13.10
2019-05-26T06:20:16.901Z,13.20
2019-05-26T06:22:45.758Z,13.40
2019-05-26T06:25:14.856Z,13.50
2019-05-26T06:27:43.997Z,13.60
2019-05-26T06:30:13.129Z,13.70
2019-05-26T06:32:45.106Z,14.00
2019-05-26T06:35:14.282Z,14.20
2019-05-26T06:37:43.330Z,14.50
2019-05-26T06:40:12.642Z,14.80
2019-05-26T06:42:41.543Z,15.10
2019-05-26T06:45:10.697Z,15.20
2019-05-26T06:47:39.501Z,15.30
2019-05-26T06:50:08.866Z,15.50
2019-05-26T06:52:37.791Z,15.60
2019-05-26T06:55:07.636Z,15.80
2019-05-26T06:57:36.608Z,16.00
2019-05-26T07:00:05.750Z,16.20
2019-05-26T07:02:34.629Z,16.40
2019-05-26T07:05:03.683Z,16.70
2019-05-26T07:07:32.933Z,17.10
2019-05-26T07:10:01.844Z,17.60
2019-05-26T07:12:31.341Z,17.90
2019-05-26T07:15:00.211Z,18.20
2019-05-26T07:17:29.041Z,18.60
2019-05-26T07:19:57.998Z,18.90
2019-05-26T07:22:26.873Z,19.10
2019-05-26T07:24:56.110Z,19.40
2019-05-26T07:27:25.331Z,19.60
2019-05-26T07:29:54.420Z,19.80
2019-05-26T07:32:23.313Z,20.20
2019-05-26T07:34:52.637Z,20.40
2019-05-26T07:37:21.642Z,20.70
2019-05-26T07:39:51.159Z,21.00
2019-05-26T07:42:20.523Z,21.20
2019-05-26T07:44:49.414Z,21.30
2019-05-26T07:47:18.326Z,21.60
2019-05-26T07:49:47.241Z,21.80
2019-05-26T07:52:16.217Z,22.00
2019-05-26T07:54:45.052Z,22.00
2019-05-26T07:57:13.920Z,22.00
2019-05-26T07:59:42.748Z,22.00
2019-05-26T08:02:11.688Z,22.20
2019-05-26T08:04:40.809Z,22.60
2019-05-26T08:07:09.818Z,22.70
2019-05-26T08:09:38.638Z,23.00
2019-05-26T08:12:07.569Z,23.10
2019-05-26T08:14:36.397Z,23.30
2019-05-26T08:17:05.382Z,23.50
2019-05-26T08:19:34.197Z,23.70
2019-05-26T08:22:03.061Z,23.70
2019-05-26T08:24:31.982Z,23.60
2019-05-26T08:27:05.220Z,23.50
2019-05-26T08:29:44.516Z,23.60
2019-05-26T08:32:15.122Z,23.70
2019-05-26T08:34:44.077Z,23.80
2019-05-26T08:37:13.016Z,24.00
2019-05-26T08:39:41.969Z,24.20
2019-05-26T08:42:24.624Z,24.40
2019-05-26T08:44:41.506Z,24.40
2019-05-26T08:47:10.474Z,24.50
2019-05-26T08:49:39.389Z,24.40
2019-05-26T08:52:08.608Z,24.60
2019-05-26T08:54:37.661Z,24.80
2019-05-26T08:57:06.770Z,24.90
2019-05-26T08:59:35.758Z,25.00
2019-05-26T09:02:04.734Z,24.90
2019-05-26T09:04:33.646Z,24.80
2019-05-26T09:07:02.802Z,24.80
2019-05-26T09:09:31.700Z,24.80
2019-05-26T09:12:00.567Z,24.90
2019-05-26T09:14:29.564Z,25.10
2019-05-26T09:16:58.369Z,25.20
2019-05-26T09:19:27.376Z,25.10
2019-05-26T09:21:56.336Z,25.40
2019-05-26T09:24:25.228Z,25.50
2019-05-26T09:26:54.134Z,25.70
2019-05-26T09:29:23.315Z,25.70
2019-05-26T09:31:52.607Z,25.80
2019-05-26T09:34:21.425Z,25.90
2019-05-26T09:36:50.291Z,25.90
2019-05-26T09:39:19.138Z,26.10
2019-05-26T09:41:47.989Z,26.20
2019-05-26T09:44:16.880Z,26.00
2019-05-26T09:46:45.740Z,25.90
2019-05-26T09:49:14.632Z,25.90
2019-05-26T09:51:44.033Z,26.10
2019-05-26T09:54:13.053Z,26.20
2019-05-26T09:56:42.062Z,26.40
2019-05-26T09:59:10.929Z,26.30
2019-05-26T10:01:39.834Z,26.30
2019-05-26T10:04:08.743Z,26.30
2019-05-26T10:06:37.542Z,26.50
2019-05-26T10:09:07.693Z,26.50
2019-05-26T10:11:36.692Z,26.60
2019-05-26T10:14:05.769Z,26.60
2019-05-26T10:16:34.901Z,26.70
2019-05-26T10:19:03.807Z,26.90
2019-05-26T10:21:33.196Z,27.10
2019-05-26T10:24:02.096Z,27.00
2019-05-26T10:26:31.154Z,27.20
2019-05-26T10:29:00.869Z,27.20
2019-05-26T10:31:30.529Z,27.40
2019-05-26T10:33:59.370Z,27.50
2019-05-26T10:36:28.176Z,27.50
2019-05-26T10:38:56.988Z,27.50
2019-05-26T10:41:25.893Z,27.40
2019-05-26T10:43:54.770Z,27.40
2019-05-26T10:46:23.941Z,27.50
2019-05-26T10:48:53.008Z,27.70
2019-05-26T10:51:22.169Z,27.90
2019-05-26T10:53:51.072Z,28.10
2019-05-26T10:56:20.064Z,28.20
2019-05-26T10:58:48.975Z,28.20
2019-05-26T11:01:17.801Z,28.30
2019-05-26T11:03:46.706Z,28.20
2019-05-26T11:06:15.592Z,28.20
2019-05-26T11:08:44.409Z,28.40
2019-05-26T11:11:13.429Z,28.30
2019-05-26T11:13:42.262Z,28.00
2019-05-26T11:16:11.393Z,28.00
2019-05-26T11:18:40.224Z,28.00
2019-05-26T11:21:12.354Z,28.10
2019-05-26T11:23:40.203Z,28.40
2019-05-26T11:26:09.034Z,28.30
2019-05-26T11:28:38.256Z,28.70
2019-05-26T11:31:07.144Z,29.10
2019-05-26T11:33:36.056Z,29.50
2019-05-26T11:36:05.026Z,29.90
2019-05-26T11:38:34.024Z,30.00
2019-05-26T11:41:02.893Z,30.10
2019-05-26T11:43:31.894Z,30.00
2019-05-26T11:46:00.816Z,29.80
2019-05-26T11:48:29.612Z,29.80
2019-05-26T11:50:58.531Z,29.60
2019-05-26T11:53:27.854Z,29.30
2019-05-26T11:55:56.657Z,29.20
2019-05-26T11:58:25.974Z,29.30
2019-05-26T12:00:55.218Z,29.50
2019-05-26T12:03:24.349Z,29.80
2019-05-26T12:05:53.730Z,29.70
2019-05-26T12:08:22.535Z,29.70
2019-05-26T12:10:51.431Z,29.70
2019-05-26T12:13:20.339Z,30.00
2019-05-26T12:15:49.400Z,30.30
2019-05-26T12:18:18.274Z,30.40
2019-05-26T12:20:47.188Z,30.50
2019-05-26T12:23:16.071Z,30.40
2019-05-26T12:25:44.864Z,30.20
2019-05-26T12:28:14.194Z,29.90
2019-05-26T12:30:43.128Z,29.70
2019-05-26T12:33:11.979Z,29.50
2019-05-26T12:35:47.154Z,29.40
2019-05-26T12:38:16.249Z,29.30
2019-05-26T12:40:45.262Z,29.10
2019-05-26T12:43:14.471Z,29.20
2019-05-26T12:45:44.453Z,29.40
2019-05-26T12:48:13.515Z,29.70
2019-05-26T12:50:42.561Z,29.90
2019-05-26T12:53:11.745Z,29.90
2019-05-26T12:55:40.711Z,30.20
2019-05-26T12:58:09.673Z,30.50
2019-05-26T13:00:48.732Z,30.70
2019-05-26T13:03:09.401Z,31.10
2019-05-26T13:05:38.235Z,31.40
2019-05-26T13:08:07.449Z,31.50
2019-05-26T13:10:36.400Z,31.50
2019-05-26T13:13:05.306Z,31.40
2019-05-26T13:15:34.268Z,31.60
2019-05-26T13:18:03.226Z,31.40
2019-05-26T13:20:32.321Z,31.50
2019-05-26T13:23:01.133Z,31.80
2019-05-26T13:25:29.986Z,32.10
2019-05-26T13:28:00.752Z,32.50
2019-05-26T13:30:29.765Z,32.90
2019-05-26T13:32:58.690Z,33.00
2019-05-26T13:35:27.585Z,33.00
2019-05-26T13:37:56.705Z,33.50
2019-05-26T13:40:25.611Z,33.80
2019-05-26T13:42:54.525Z,34.20
2019-05-26T13:45:23.724Z,34.50
2019-05-26T13:47:53.331Z,34.60
2019-05-26T13:50:22.745Z,34.90
2019-05-26T13:52:51.648Z,35.00
2019-05-26T13:55:21.009Z,34.80
2019-05-26T13:57:49.887Z,34.70
2019-05-26T14:00:19.576Z,34.80
2019-05-26T14:02:48.464Z,35.10
2019-05-26T14:05:17.805Z,35.50
2019-05-26T14:07:46.693Z,35.50
2019-05-26T14:10:21.072Z,35.60
2019-05-26T14:12:50.046Z,35.60
2019-05-26T14:15:19.073Z,35.80
2019-05-26T14:17:48.524Z,35.40
2019-05-26T14:20:20.416Z,35.80
2019-05-26T14:22:49.320Z,35.70
2019-05-26T14:25:18.352Z,34.80
2019-05-26T14:27:47.301Z,34.20
2019-05-26T14:30:16.735Z,34.10
2019-05-26T14:32:45.785Z,34.40
2019-05-26T14:35:14.851Z,34.90
2019-05-26T14:37:43.661Z,35.30
2019-05-26T14:40:12.849Z,35.10
2019-05-26T14:42:41.896Z,34.50
2019-05-26T14:45:10.866Z,33.60
2019-05-26T14:47:39.768Z,32.50
2019-05-26T14:50:09.925Z,31.50
2019-05-26T14:52:38.953Z,30.30
2019-05-26T14:55:08.895Z,29.60
2019-05-26T14:57:37.791Z,29.10
2019-05-26T15:00:07.523Z,29.20
2019-05-26T15:02:36.684Z,28.90
2019-05-26T15:07:34.137Z,28.20
2019-05-26T15:10:03.113Z,27.70
2019-05-26T15:12:31.982Z,27.70
2019-05-26T15:15:00.785Z,28.80
2019-05-26T15:17:30.081Z,29.90
2019-05-26T15:19:59.000Z,30.10
2019-05-26T15:22:27.993Z,29.70
2019-05-26T15:24:57.216Z,29.00
2019-05-26T15:27:26.213Z,28.00
2019-05-26T15:29:55.137Z,27.40
2019-05-26T15:32:24.206Z,26.90
2019-05-26T15:34:53.126Z,26.30
2019-05-26T15:37:22.261Z,25.80
2019-05-26T15:39:51.134Z,25.60
2019-05-26T15:42:20.041Z,25.50
2019-05-26T15:44:48.829Z,25.90
2019-05-26T15:47:17.975Z,27.10
2019-05-26T15:49:47.080Z,28.80
2019-05-26T15:52:15.951Z,30.40
2019-05-26T15:54:45.084Z,31.70
2019-05-26T15:57:13.915Z,32.90
2019-05-26T15:59:42.868Z,33.80
2019-05-26T16:02:11.766Z,34.20
2019-05-26T16:04:40.570Z,34.50
2019-05-26T16:07:09.477Z,34.90
2019-05-26T16:09:38.365Z,34.60
2019-05-26T16:12:07.367Z,34.20
2019-05-26T16:14:36.470Z,34.20
2019-05-26T16:17:05.506Z,34.20
2019-05-26T16:19:34.494Z,34.30
2019-05-26T16:22:03.530Z,33.90
2019-05-26T16:24:32.437Z,33.20
2019-05-26T16:27:17.832Z,32.60
2019-05-26T16:29:32.037Z,32.50
2019-05-26T16:32:01.186Z,32.60
2019-05-26T16:34:30.125Z,32.30
2019-05-26T16:36:59.073Z,31.70
2019-05-26T16:39:36.463Z,31.00
2019-05-26T16:41:58.534Z,30.20
2019-05-26T16:44:27.475Z,29.40
2019-05-26T16:46:57.183Z,28.50
2019-05-26T16:49:26.125Z,27.70
2019-05-26T16:51:55.259Z,27.00
2019-05-26T16:54:24.322Z,26.40
2019-05-26T16:56:53.133Z,26.00
2019-05-26T16:59:22.038Z,25.70
2019-05-26T17:01:51.230Z,25.30
2019-05-26T17:04:20.134Z,25.10
2019-05-26T17:06:49.013Z,24.90
2019-05-26T17:09:17.853Z,24.80
2019-05-26T17:11:46.848Z,24.80
2019-05-26T17:14:16.286Z,24.70
2019-05-26T17:16:45.288Z,24.60
2019-05-26T17:19:14.199Z,24.40
2019-05-26T17:21:43.126Z,24.20
2019-05-26T17:24:12.245Z,24.10
2019-05-26T17:26:41.201Z,23.90
2019-05-26T17:29:10.129Z,23.70
2019-05-26T17:31:39.084Z,23.60
2019-05-26T17:34:08.017Z,23.40
2019-05-26T17:36:36.836Z,23.20
2019-05-26T17:39:07.676Z,23.00
2019-05-26T17:41:36.629Z,22.90
2019-05-26T17:44:06.302Z,22.90
2019-05-26T17:46:35.188Z,22.80
2019-05-26T17:49:04.208Z,22.70
2019-05-26T17:51:33.115Z,22.50
2019-05-26T17:54:02.116Z,22.40
2019-05-26T17:56:30.950Z,22.40
2019-05-26T17:58:59.893Z,22.30
2019-05-26T18:01:28.824Z,22.20
2019-05-26T18:03:57.960Z,22.10
2019-05-26T18:06:26.882Z,22.10
2019-05-26T18:08:55.677Z,22.00
2019-05-26T18:11:24.674Z,22.00
2019-05-26T18:13:53.752Z,21.80
2019-05-26T18:16:22.632Z,21.70
2019-05-26T18:18:51.538Z,21.60
2019-05-26T18:21:20.364Z,21.60
2019-05-26T18:23:49.479Z,21.40
2019-05-26T18:26:18.705Z,21.20
2019-05-26T18:28:47.961Z,21.10
2019-05-26T18:31:16.791Z,20.90
2019-05-26T18:33:45.605Z,20.70
2019-05-26T18:36:14.685Z,20.60
2019-05-26T18:38:43.576Z,20.50
2019-05-26T18:41:12.466Z,20.40
2019-05-26T18:43:41.354Z,20.30
2019-05-26T18:46:10.326Z,20.20
2019-05-26T18:48:39.282Z,20.20
2019-05-26T18:51:08.221Z,20.10
2019-05-26T18:53:39.253Z,20.00
2019-05-26T18:56:08.426Z,20.00
2019-05-26T18:58:37.634Z,19.90
2019-05-26T19:01:06.966Z,19.80
2019-05-26T19:03:35.805Z,19.80
2019-05-26T19:06:05.008Z,19.60
2019-05-26T19:08:34.193Z,19.60
2019-05-26T19:11:03.106Z,19.50
2019-05-26T19:13:32.043Z,19.40
2019-05-26T19:16:01.006Z,19.30
2019-05-26T19:18:29.935Z,19.30
2019-05-26T19:20:58.851Z,19.20
2019-05-26T19:23:27.725Z,19.10
2019-05-26T19:25:56.532Z,19.00
2019-05-26T19:28:25.461Z,18.80
2019-05-26T19:30:54.423Z,18.70
2019-05-26T19:33:23.233Z,18.70
2019-05-26T19:35:52.302Z,18.60
2019-05-26T19:38:21.103Z,18.40
2019-05-26T19:40:49.944Z,18.30
2019-05-26T19:43:19.021Z,18.20
2019-05-26T19:45:47.857Z,18.10
2019-05-26T19:48:16.766Z,18.00
2019-05-26T19:50:45.603Z,17.90
2019-05-26T19:53:14.437Z,17.90
2019-05-26T19:55:43.321Z,17.70
2019-05-26T19:58:12.213Z,17.60
2019-05-26T20:00:41.202Z,17.40
2019-05-26T20:03:10.126Z,17.20
2019-05-26T20:05:38.964Z,17.00
2019-05-26T20:08:08.057Z,17.00
2019-05-26T20:10:37.013Z,16.80
2019-05-26T20:13:05.971Z,16.60
2019-05-26T20:15:34.921Z,16.50
2019-05-26T20:18:03.952Z,16.40
2019-05-26T20:20:33.235Z,16.30
2019-05-26T20:23:02.210Z,16.20
2019-05-26T20:25:31.025Z,16.10
2019-05-26T20:27:59.949Z,16.00
2019-05-26T20:30:28.789Z,16.00
2019-05-26T20:32:57.697Z,15.80
2019-05-26T20:35:26.540Z,15.80
2019-05-26T20:37:55.789Z,15.70
2019-05-26T20:40:25.013Z,15.60
2019-05-26T20:42:53.807Z,15.60
2019-05-26T20:45:22.793Z,15.50
2019-05-26T20:47:52.021Z,15.50
2019-05-26T20:50:29.172Z,15.50
2019-05-26T20:52:51.577Z,15.40
2019-05-26T20:55:20.901Z,15.40
2019-05-26T20:57:49.721Z,15.30
2019-05-26T21:00:19.066Z,15.30
2019-05-26T21:02:48.001Z,15.10
2019-05-26T21:05:17.083Z,15.00
2019-05-26T21:07:45.997Z,15.00
2019-05-26T21:10:15.089Z,14.90
2019-05-26T21:12:44.012Z,14.80
2019-05-26T21:15:13.565Z,14.70
2019-05-26T21:17:42.740Z,14.60
2019-05-26T21:20:13.188Z,14.60
2019-05-26T21:22:42.193Z,14.50
2019-05-26T21:25:12.320Z,14.40
2019-05-26T21:27:41.450Z,14.40
2019-05-26T21:30:10.528Z,14.40
2019-05-26T21:32:39.843Z,14.40
2019-05-26T21:35:09.606Z,14.30
2019-05-26T21:37:38.788Z,14.30
2019-05-26T21:40:07.969Z,14.20
2019-05-26T21:42:36.779Z,14.10
2019-05-26T21:45:06.979Z,14.10
2019-05-26T21:47:36.014Z,14.00
2019-05-26T21:50:05.754Z,14.00
2019-05-26T21:52:34.617Z,14.00
2019-05-26T21:55:03.558Z,13.90
2019-05-26T21:57:32.454Z,13.90
2019-05-26T22:00:01.355Z,13.80
2019-05-26T22:02:30.358Z,13.80
2019-05-26T22:04:59.169Z,13.70
2019-05-26T22:07:28.253Z,13.70
2019-05-26T22:09:57.084Z,13.60
2019-05-26T22:12:25.953Z,13.60
2019-05-26T22:14:54.833Z,13.60
2019-05-26T22:17:23.604Z,13.60
2019-05-26T22:19:52.457Z,13.60
2019-05-26T22:22:21.354Z,13.50
2019-05-26T22:24:50.152Z,13.50
2019-05-26T22:27:19.877Z,13.40
2019-05-26T22:29:48.925Z,13.30
2019-05-26T22:32:17.769Z,13.30
2019-05-26T22:34:46.570Z,13.30
2019-05-26T22:37:15.671Z,13.20
2019-05-26T22:39:44.597Z,13.10
2019-05-26T22:42:13.566Z,13.10
2019-05-26T22:44:42.372Z,13.00
2019-05-26T22:47:11.197Z,13.00
2019-05-26T22:49:40.261Z,12.90
2019-05-26T22:52:09.151Z,12.90
2019-05-26T22:54:38.301Z,12.90
2019-05-26T22:57:07.486Z,12.90
2019-05-26T22:59:36.650Z,12.80
2019-05-26T23:02:05.709Z,12.80
2019-05-26T23:04:34.620Z,12.80
2019-05-26T23:07:03.870Z,12.70
2019-05-26T23:09:32.957Z,12.70
2019-05-26T23:12:02.176Z,12.70
2019-05-26T23:14:31.537Z,12.60
2019-05-26T23:17:00.449Z,12.60
2019-05-26T23:19:29.346Z,12.60
2019-05-26T23:21:58.452Z,12.60
2019-05-26T23:24:27.546Z,12.50
2019-05-26T23:26:56.440Z,12.50
2019-05-26T23:29:25.278Z,12.50
2019-05-26T23:31:54.134Z,12.40
2019-05-26T23:34:22.984Z,12.30
2019-05-26T23:36:51.792Z,12.30
2019-05-26T23:39:20.635Z,12.30
2019-05-26T23:41:49.449Z,12.20
2019-05-26T23:44:18.277Z,12.20
2019-05-26T23:46:47.459Z,12.20
2019-05-26T23:49:16.426Z,12.20
2019-05-26T23:51:45.249Z,12.10
2019-05-26T23:54:14.300Z,12.10
2019-05-26T23:56:43.733Z,12.00
2019-05-26T23:59:12.561Z,12.00
